Time;durP1;ratioP1;P1;durP2;ratioP2;P2;SDS_P1;SDS_P2;PMS_P1;PMS_P2;Temp;Humidity;BMP_temperature;BMP_pressure;BME280_temperature;BME280_humidity;BME280_pressure;Samples;Min_cycle;Max_cycle;Signal;HPM_P1;HPM_P2
2023/12/13 00:00:18;;;;;;;78.18;30.52;;;;;;;-146.25;100.00;52676.41;2080021;28;38427;-78
2023/12/13 00:01:20;;;;;;;75.78;29.90;;;;;;;-146.25;100.00;52666.25;2080166;28;32123;-78
2023/12/13 00:02:22;;;;;;;78.72;31.33;;;;;;;-146.25;100.00;52684.50;2080006;28;35882;-78
2023/12/13 00:03:24;;;;;;;84.53;31.98;;;;;;;-146.25;100.00;52684.50;2079328;28;38232;-77
2023/12/13 00:04:26;;;;;;;76.70;30.50;;;;;;;-146.25;100.00;52672.34;2080152;28;35935;-77
2023/12/13 00:05:30;;;;;;;75.30;31.35;;;;;;;-146.25;100.00;52684.50;2078819;28;35126;-75
2023/12/13 00:06:37;;;;;;;71.53;30.45;;;;;;;-146.25;100.00;52672.34;2080190;28;32002;-77
2023/12/13 00:07:39;;;;;;;82.03;31.20;;;;;;;-146.25;100.00;52660.19;2080454;28;20049;-78
2023/12/13 00:08:41;;;;;;;71.32;31.42;;;;;;;-146.25;100.00;52745.34;2080102;28;36968;-77
2023/12/13 00:09:43;;;;;;;80.07;31.00;;;;;;;-146.25;100.00;52684.50;2079714;28;33451;-75
2023/12/13 00:10:45;;;;;;;66.40;30.77;;;;;;;-146.25;100.00;52668.28;2079888;28;35544;-77
2023/12/13 00:11:46;;;;;;;72.22;29.60;;;;;;;-146.25;100.00;52648.00;2079965;28;34755;-76
2023/12/13 00:12:48;;;;;;;72.70;31.48;;;;;;;-146.25;100.00;52716.97;2080587;28;20038;-76
2023/12/13 00:13:50;;;;;;;77.82;31.90;;;;;;;-146.25;100.00;52694.66;2079750;28;36708;-77
2023/12/13 00:14:52;;;;;;;83.28;32.42;;;;;;;-146.25;100.00;52682.47;2080126;28;34883;-76
2023/12/13 00:15:54;;;;;;;69.25;30.85;;;;;;;-146.25;100.00;52656.13;2079537;28;20054;-77
2023/12/13 00:16:55;;;;;;;66.13;30.17;;;;;;;-146.25;100.00;52658.16;2080012;28;33219;-78
2023/12/13 00:17:57;;;;;;;77.43;30.45;;;;;;;-146.25;100.00;52670.31;2079938;28;33324;-78
2023/12/13 00:19:01;;;;;;;74.53;32.25;;;;;;;-146.25;100.00;52700.72;2080636;28;20911;-78
2023/12/13 00:20:05;;;;;;;70.55;31.10;;;;;;;-146.25;100.00;52708.84;2079826;28;34001;-76
2023/12/13 00:21:09;;;;;;;77.95;32.13;;;;;;;-146.25;100.00;52708.84;2079848;28;34704;-78
2023/12/13 00:22:10;;;;;;;68.40;30.75;;;;;;;-146.25;100.00;52680.47;2079835;28;36511;-78
2023/12/13 00:23:12;;;;;;;72.85;30.55;;;;;;;-146.25;100.00;52668.28;2079980;28;35986;-77
2023/12/13 00:24:14;;;;;;;72.15;31.08;;;;;;;-146.25;100.00;52700.72;2079081;28;36729;-77
2023/12/13 00:25:19;;;;;;;72.88;32.08;;;;;;;-146.25;100.00;52668.28;2080779;28;20169;-77
2023/12/13 00:26:23;;;;;;;72.93;32.22;;;;;;;-146.25;100.00;52674.38;2079812;28;36242;-78
2023/12/13 00:27:25;;;;;;;72.03;32.45;;;;;;;-146.25;100.00;52666.25;2079857;28;32913;-78
2023/12/13 00:28:27;;;;;;;76.28;31.38;;;;;;;-146.25;100.00;52706.81;2079736;28;35637;-76
2023/12/13 00:29:29;;;;;;;72.75;31.30;;;;;;;-146.25;100.00;52680.47;2079613;28;37823;-78
2023/12/13 00:30:31;;;;;;;82.10;32.72;;;;;;;-146.25;100.00;52692.63;2079540;28;35487;-78
2023/12/13 00:31:32;;;;;;;77.40;32.17;;;;;;;-146.25;100.00;52650.03;2080477;28;20038;-78
2023/12/13 00:32:35;;;;;;;80.65;31.15;;;;;;;-146.25;100.00;52680.47;2079401;28;36968;-78
2023/12/13 00:33:38;;;;;;;68.50;31.35;;;;;;;-146.25;100.00;52688.56;2080108;28;34658;-78
2023/12/13 00:34:40;;;;;;;74.35;32.58;;;;;;;-146.25;100.00;52660.19;2079159;28;36071;-78
2023/12/13 00:35:41;;;;;;;74.47;32.83;;;;;;;-146.25;100.00;52660.19;2079747;28;38304;-77
2023/12/13 00:36:43;;;;;;;80.95;32.47;;;;;;;-146.25;100.00;52676.41;2079807;28;35805;-77
2023/12/13 00:37:45;;;;;;;74.35;32.30;;;;;;;-146.25;100.00;52664.22;2079663;28;37726;-78
2023/12/13 00:38:50;;;;;;;80.38;33.33;;;;;;;-146.25;100.00;52678.44;2079927;28;34903;-79
2023/12/13 00:39:51;;;;;;;79.82;33.65;;;;;;;-146.25;100.00;52670.31;2080211;28;20077;-78
2023/12/13 00:40:53;;;;;;;85.15;32.38;;;;;;;-146.25;100.00;52670.31;2079660;28;34039;-79
2023/12/13 00:41:57;;;;;;;74.28;32.20;;;;;;;-146.25;100.00;52725.06;2079749;28;33740;-78
2023/12/13 00:42:59;;;;;;;80.47;33.13;;;;;;;-146.25;100.00;52670.31;2080490;28;20054;-78
2023/12/13 00:44:04;;;;;;;75.43;31.42;;;;;;;-146.25;100.00;52656.13;2080457;28;20169;-78
2023/12/13 00:45:10;;;;;;;77.60;32.50;;;;;;;-146.25;100.00;52656.13;2080496;28;20033;-76
2023/12/13 00:46:19;;;;;;;74.63;32.15;;;;;;;-146.25;100.00;52716.97;2079724;28;32440;-78
2023/12/13 00:47:21;;;;;;;84.50;34.05;;;;;;;-146.25;100.00;52668.28;2079869;28;33846;-78
2023/12/13 00:48:23;;;;;;;73.43;31.60;;;;;;;-146.25;100.00;52672.34;2079580;28;34041;-77
2023/12/13 00:49:25;;;;;;;79.43;32.88;;;;;;;-146.25;100.00;52682.47;2079548;28;35091;-78
2023/12/13 00:50:27;;;;;;;75.15;32.97;;;;;;;-146.25;100.00;52684.50;2079669;28;36834;-76
2023/12/13 00:51:29;;;;;;;83.57;32.30;;;;;;;-146.25;100.00;52684.50;2079761;28;33921;-77
2023/12/13 00:52:32;;;;;;;78.88;33.42;;;;;;;-146.25;100.00;52692.63;2079540;28;36622;-77
2023/12/13 00:53:33;;;;;;;82.13;34.65;;;;;;;-146.25;100.00;52648.00;2079242;28;38061;-78
2023/12/13 00:54:35;;;;;;;79.22;34.30;;;;;;;-146.25;100.00;52668.28;2079623;28;33690;-76
2023/12/13 00:55:37;;;;;;;86.03;33.97;;;;;;;-146.25;100.00;52668.28;2079554;28;38328;-76
2023/12/13 00:56:39;;;;;;;81.65;34.80;;;;;;;-146.25;100.00;52688.56;2079419;28;35873;-76
2023/12/13 00:57:41;;;;;;;76.97;33.22;;;;;;;-146.25;100.00;52710.88;2079798;28;20038;-76
2023/12/13 00:58:45;;;;;;;83.97;34.70;;;;;;;-146.25;100.00;52641.94;2079520;28;40875;-74
2023/12/13 00:59:47;;;;;;;72.15;33.25;;;;;;;-146.25;100.00;52680.47;2079591;28;33931;-75
2023/12/13 01:00:48;;;;;;;80.65;33.95;;;;;;;-146.25;100.00;52674.38;2080021;28;34335;-75
2023/12/13 01:01:50;;;;;;;78.43;32.47;;;;;;;-146.25;100.00;52704.78;2079513;28;38480;-76
2023/12/13 01:02:52;;;;;;;82.82;34.30;;;;;;;-146.25;100.00;52668.28;2079632;28;35238;-76
2023/12/13 01:03:54;;;;;;;83.30;33.10;;;;;;;-146.25;100.00;52688.56;2080047;28;20046;-76
2023/12/13 01:04:57;;;;;;;75.63;31.42;;;;;;;-146.25;100.00;52672.34;2080375;28;20792;-77
2023/12/13 01:05:59;;;;;;;83.90;34.70;;;;;;;-146.25;100.00;52684.50;2079412;28;33402;-76
2023/12/13 01:07:00;;;;;;;80.38;33.95;;;;;;;-146.25;100.00;52696.69;2079013;28;36254;-76
2023/12/13 01:08:05;;;;;;;82.35;33.60;;;;;;;-146.25;100.00;52666.25;2080188;28;20034;-76
2023/12/13 01:09:08;;;;;;;83.43;32.80;;;;;;;-146.25;100.00;52702.75;2080408;28;20815;-76
2023/12/13 01:10:09;;;;;;;74.30;32.05;;;;;;;-146.25;100.00;52674.38;2080188;28;37138;-76
2023/12/13 01:11:11;;;;;;;82.45;33.00;;;;;;;-146.25;100.00;52716.97;2079655;28;38638;-76
2023/12/13 01:12:13;;;;;;;72.88;33.33;;;;;;;-146.25;100.00;52696.69;2079743;28;20910;-73
2023/12/13 01:13:15;;;;;;;85.88;34.17;;;;;;;-146.25;100.00;52686.53;2079446;28;35192;-76
2023/12/13 01:14:17;;;;;;;80.43;34.47;;;;;;;-146.25;100.00;52686.53;2079604;28;34674;-76
2023/12/13 01:15:19;;;;;;;77.05;32.53;;;;;;;-146.25;100.00;52672.34;2080053;28;20053;-77
2023/12/13 01:16:20;;;;;;;81.93;34.72;;;;;;;-146.25;100.00;52721.00;2078719;28;38174;-78
2023/12/13 01:17:22;;;;;;;74.78;34.35;;;;;;;-146.25;100.00;52688.56;2079748;28;37207;-77
2023/12/13 01:18:24;;;;;;;79.45;33.05;;;;;;;-146.25;100.00;52668.28;2080279;28;20085;-77
2023/12/13 01:19:26;;;;;;;77.13;32.90;;;;;;;-146.25;100.00;52656.13;2079345;28;39208;-77
2023/12/13 01:20:28;;;;;;;76.78;33.35;;;;;;;-146.25;100.00;52643.97;2079669;28;33340;-77
2023/12/13 01:21:30;;;;;;;75.88;33.90;;;;;;;-146.25;100.00;52668.28;2080404;28;20068;-78
2023/12/13 01:22:32;;;;;;;86.15;33.20;;;;;;;-146.25;100.00;52694.66;2079507;28;35626;-77
2023/12/13 01:23:34;;;;;;;89.40;34.95;;;;;;;-146.25;100.00;52676.41;2079724;28;35434;-78
2023/12/13 01:24:38;;;;;;;74.38;33.17;;;;;;;-146.25;100.00;52682.47;2080192;28;20041;-78
2023/12/13 01:25:40;;;;;;;84.72;32.65;;;;;;;-146.25;100.00;52692.63;2079019;28;36354;-77
2023/12/13 01:26:42;;;;;;;88.18;33.22;;;;;;;-146.25;100.00;52678.44;2079686;28;33643;-77
2023/12/13 01:27:43;;;;;;;84.13;33.53;;;;;;;-146.25;100.00;52650.03;2079812;28;20172;-78
2023/12/13 01:28:45;;;;;;;82.22;34.22;;;;;;;-146.25;100.00;52692.63;2079186;28;38972;-78
2023/12/13 01:29:47;;;;;;;86.65;34.97;;;;;;;-146.25;100.00;52698.72;2079466;28;34976;-77
2023/12/13 01:30:49;;;;;;;84.57;35.75;;;;;;;-146.25;100.00;52723.03;2079359;28;37222;-78
2023/12/13 01:31:50;;;;;;;75.53;34.28;;;;;;;-146.25;100.00;52678.44;2079222;28;35836;-78
2023/12/13 01:32:53;;;;;;;85.57;34.50;;;;;;;-146.25;100.00;52696.69;2079396;28;34689;-78
2023/12/13 01:33:55;;;;;;;86.18;34.70;;;;;;;-146.25;100.00;52674.38;2078964;28;35249;-78
2023/12/13 01:34:56;;;;;;;95.30;36.47;;;;;;;-146.25;100.00;52660.19;2078831;28;35769;-77
2023/12/13 01:36:02;;;;;;;96.38;36.33;;;;;;;-146.25;100.00;52641.94;2080109;28;20161;-78
2023/12/13 01:37:04;;;;;;;87.32;34.75;;;;;;;-146.25;100.00;52704.78;2079241;28;33870;-78
2023/12/13 01:38:06;;;;;;;90.32;35.95;;;;;;;-146.25;100.00;52686.53;2079463;28;35025;-78
2023/12/13 01:39:08;;;;;;;84.22;36.45;;;;;;;-146.25;100.00;52698.72;2078684;28;33401;-77
2023/12/13 01:40:10;;;;;;;87.72;35.90;;;;;;;-146.25;100.00;52670.31;2078634;28;36656;-78
2023/12/13 01:41:12;;;;;;;88.18;35.95;;;;;;;-146.25;100.00;52712.91;2079534;28;33720;-77
2023/12/13 01:42:14;;;;;;;93.55;34.75;;;;;;;-146.25;100.00;52643.97;2079598;28;33735;-76
2023/12/13 01:43:23;;;;;;;85.50;34.58;;;;;;;-146.25;100.00;52690.59;2079014;28;36192;-77
2023/12/13 01:44:25;;;;;;;92.70;35.30;;;;;;;-146.25;100.00;52696.69;2079980;28;20045;-78
2023/12/13 01:45:29;;;;;;;86.20;35.20;;;;;;;-146.25;100.00;52684.50;2080154;28;25973;-77
2023/12/13 01:46:31;;;;;;;94.40;36.05;;;;;;;-146.25;100.00;52708.84;2078710;28;34311;-77
2023/12/13 01:47:36;;;;;;;88.28;36.05;;;;;;;-146.25;100.00;52664.22;2080194;28;20041;-78
2023/12/13 01:48:39;;;;;;;99.70;35.65;;;;;;;-146.25;100.00;52658.16;2079459;28;37782;-78
2023/12/13 01:49:44;;;;;;;98.45;36.45;;;;;;;-146.25;100.00;52692.63;2078640;28;38271;-78
2023/12/13 01:50:45;;;;;;;87.40;34.42;;;;;;;-146.25;100.00;52718.97;2079882;28;20041;-78
2023/12/13 01:51:47;;;;;;;99.38;37.03;;;;;;;-146.25;100.00;52716.97;2079648;28;35416;-78
2023/12/13 01:52:49;;;;;;;96.75;36.08;;;;;;;-146.25;100.00;52682.47;2079027;28;38452;-77
2023/12/13 01:53:51;;;;;;;96.88;36.70;;;;;;;-146.25;100.00;52694.66;2080120;28;20074;-77
2023/12/13 01:54:54;;;;;;;94.18;36.60;;;;;;;-146.25;100.00;52648.00;2079188;28;39989;-77
2023/12/13 01:56:00;;;;;;;92.43;36.17;;;;;;;-146.25;100.00;52692.63;2078248;28;32770;-77
2023/12/13 01:57:03;;;;;;;85.20;34.90;;;;;;;-146.25;100.00;52660.19;2070673;28;35171;-78
2023/12/13 01:58:04;;;;;;;98.05;34.97;;;;;;;-146.25;100.00;52692.63;2071379;28;37134;-77
2023/12/13 01:59:06;;;;;;;90.28;34.72;;;;;;;-146.25;100.00;52643.97;2079480;28;34661;-75
2023/12/13 02:00:09;;;;;;;95.70;35.55;;;;;;;-146.25;100.00;52676.41;2078648;28;36162;-78
2023/12/13 02:01:11;;;;;;;94.00;36.67;;;;;;;-146.25;100.00;52721.00;2079391;28;20240;-78
2023/12/13 02:02:17;;;;;;;92.07;36.47;;;;;;;-146.25;100.00;52688.56;2079954;28;20116;-78
2023/12/13 02:03:21;;;;;;;98.32;35.97;;;;;;;-146.25;100.00;52645.97;2080096;28;20045;-78
2023/12/13 02:04:28;;;;;;;86.93;34.00;;;;;;;-146.25;100.00;52670.31;2079305;28;37693;-78
2023/12/13 02:05:32;;;;;;;99.97;34.80;;;;;;;-146.25;100.00;52674.38;2078756;28;34054;-78
2023/12/13 02:06:37;;;;;;;95.10;36.13;;;;;;;-146.25;100.00;52680.47;2071168;28;20120;-78
2023/12/13 02:07:38;;;;;;;93.00;35.00;;;;;;;-146.25;100.00;52678.44;2071996;28;36532;-78
2023/12/13 02:08:40;;;;;;;87.55;35.25;;;;;;;-146.25;100.00;52692.63;2079493;28;35569;-78
2023/12/13 02:09:42;;;;;;;87.38;33.88;;;;;;;-146.25;100.00;52658.16;2080347;28;20831;-78
2023/12/13 02:10:45;;;;;;;89.88;35.05;;;;;;;-146.25;100.00;52698.72;2079194;28;38551;-79
2023/12/13 02:11:47;;;;;;;97.43;35.35;;;;;;;-146.25;100.00;52702.75;2079439;28;35919;-79
2023/12/13 02:12:50;;;;;;;85.47;32.35;;;;;;;-146.25;100.00;52688.56;2079513;28;20069;-78
2023/12/13 02:13:52;;;;;;;80.88;34.60;;;;;;;-146.25;100.00;52676.41;2079284;28;37655;-77
2023/12/13 02:14:54;;;;;;;102.60;35.72;;;;;;;-146.25;100.00;52650.03;2079204;28;34481;-78
2023/12/13 02:15:56;;;;;;;79.70;33.55;;;;;;;-146.25;100.00;52656.13;2079981;28;20041;-77
2023/12/13 02:16:58;;;;;;;96.00;35.60;;;;;;;-146.25;100.00;52650.03;2079255;28;34553;-78
2023/12/13 02:17:59;;;;;;;83.45;34.22;;;;;;;-146.25;100.00;52696.69;2079317;28;36090;-78
2023/12/13 02:19:01;;;;;;;84.72;33.83;;;;;;;-146.25;100.00;52700.72;2079419;28;35401;-78
2023/12/13 02:20:04;;;;;;;94.68;34.88;;;;;;;-146.25;100.00;52682.47;2079388;28;30497;-78
2023/12/13 02:21:08;;;;;;;85.63;33.78;;;;;;;-146.25;100.00;52725.06;2079341;28;32756;-77
2023/12/13 02:22:10;;;;;;;86.85;34.20;;;;;;;-146.25;100.00;52676.41;2078854;28;36508;-78
2023/12/13 02:23:12;;;;;;;92.05;34.20;;;;;;;-146.25;100.00;52656.13;2079085;28;39134;-77
2023/12/13 02:24:15;;;;;;;87.18;34.00;;;;;;;-146.25;100.00;52688.56;2079225;28;33585;-77
2023/12/13 02:25:27;;;;;;;90.47;34.22;;;;;;;-146.25;100.00;52674.38;2078632;28;33640;-78
2023/12/13 02:26:32;;;;;;;87.30;33.65;;;;;;;-146.25;100.00;52684.50;2070261;28;36536;-78
2023/12/13 02:27:34;;;;;;;87.63;34.55;;;;;;;-146.25;100.00;52682.47;2072376;28;20883;-78
2023/12/13 02:28:36;;;;;;;82.70;34.05;;;;;;;-146.25;100.00;52650.03;2079899;28;37017;-77
2023/12/13 02:29:38;;;;;;;83.68;34.33;;;;;;;-146.25;100.00;52676.41;2080803;28;38435;-76
2023/12/13 02:30:41;;;;;;;81.05;33.33;;;;;;;-146.25;100.00;52674.38;2080867;28;35233;-78
2023/12/13 02:31:44;;;;;;;88.72;33.88;;;;;;;-146.25;100.00;52688.56;2080324;28;36784;-77
2023/12/13 02:32:46;;;;;;;91.20;34.45;;;;;;;-146.25;100.00;52639.91;2081190;28;20042;-78
2023/12/13 02:33:47;;;;;;;85.63;34.58;;;;;;;-146.25;100.00;52688.56;2080586;28;36977;-77
2023/12/13 02:34:49;;;;;;;85.70;33.88;;;;;;;-146.25;100.00;52648.00;2080583;28;37040;-78
2023/12/13 02:35:59;;;;;;;81.78;35.17;;;;;;;-146.25;100.00;52676.41;2080361;28;32697;-77
2023/12/13 02:37:02;;;;;;;79.97;33.87;;;;;;;-146.25;100.00;52652.06;2080764;28;33561;-78
2023/12/13 02:38:06;;;;;;;87.38;32.92;;;;;;;-146.25;100.00;52658.16;2081026;28;20576;-78
2023/12/13 02:39:08;;;;;;;89.57;34.58;;;;;;;-146.25;100.00;52656.13;2079229;28;38777;-73
2023/12/13 02:40:13;;;;;;;84.53;32.90;;;;;;;-146.25;100.00;52686.53;2079480;28;34854;-77
2023/12/13 02:41:17;;;;;;;86.80;33.80;;;;;;;-146.25;100.00;52721.00;2081670;28;20041;-77
2023/12/13 02:42:19;;;;;;;79.40;32.13;;;;;;;-146.25;100.00;52718.97;2080073;28;35597;-77
2023/12/13 02:43:20;;;;;;;79.82;34.80;;;;;;;-146.25;100.00;52682.47;2080275;28;34197;-77
2023/12/13 02:44:22;;;;;;;87.00;34.50;;;;;;;-146.25;100.00;52664.22;2080935;28;20038;-78
2023/12/13 02:45:24;;;;;;;78.97;32.13;;;;;;;-146.25;100.00;52672.34;2080698;28;35603;-78
2023/12/13 02:46:28;;;;;;;83.07;33.58;;;;;;;-146.25;100.00;52692.63;2080176;28;36311;-79
2023/12/13 02:47:30;;;;;;;78.60;33.20;;;;;;;-146.25;100.00;52674.38;2079987;28;36875;-76
2023/12/13 02:48:32;;;;;;;78.95;32.85;;;;;;;-146.25;100.00;52710.88;2079847;28;35826;-77
2023/12/13 02:49:34;;;;;;;81.18;33.67;;;;;;;-146.25;100.00;52637.88;2080416;28;35407;-80
2023/12/13 02:50:38;;;;;;;78.18;34.08;;;;;;;-146.25;100.00;52708.84;2080077;28;36168;-79
2023/12/13 02:51:41;;;;;;;73.65;32.75;;;;;;;-146.25;100.00;52672.34;2081388;28;20042;-80
2023/12/13 02:52:42;;;;;;;89.10;33.85;;;;;;;-146.25;100.00;52674.38;2081487;28;20088;-75
2023/12/13 02:53:46;;;;;;;87.70;33.42;;;;;;;-146.25;100.00;52692.63;2080878;28;20045;-78
2023/12/13 02:54:48;;;;;;;83.85;33.08;;;;;;;-146.25;100.00;52706.81;2079709;28;39456;-78
2023/12/13 02:55:50;;;;;;;80.90;33.58;;;;;;;-146.25;100.00;52680.47;2080680;28;34914;-78
2023/12/13 02:56:54;;;;;;;84.68;35.38;;;;;;;-146.25;100.00;52696.69;2080999;28;21020;-77
2023/12/13 02:57:56;;;;;;;76.45;32.90;;;;;;;-146.25;100.00;52670.31;2081291;28;20034;-77
2023/12/13 02:59:00;;;;;;;84.78;34.42;;;;;;;-146.25;100.00;52686.53;2080233;28;37456;-79
2023/12/13 03:00:03;;;;;;;83.75;34.00;;;;;;;-146.25;100.00;52672.34;2080490;28;38226;-77
2023/12/13 03:01:05;;;;;;;84.40;34.95;;;;;;;-146.25;100.00;52684.50;2080525;28;20034;-79
2023/12/13 03:02:07;;;;;;;77.13;32.55;;;;;;;-146.25;100.00;52670.31;2080273;28;41162;-77
2023/12/13 03:03:09;;;;;;;82.80;32.90;;;;;;;-146.25;100.00;52708.84;2080693;28;20169;-78
2023/12/13 03:04:11;;;;;;;84.68;34.22;;;;;;;-146.25;100.00;52690.59;2080750;28;20906;-79
2023/12/13 03:05:13;;;;;;;84.90;34.90;;;;;;;-146.25;100.00;52680.47;2079847;28;36495;-77
2023/12/13 03:06:17;;;;;;;79.80;34.50;;;;;;;-146.25;100.00;52696.69;2080388;28;20054;-78
2023/12/13 03:07:19;;;;;;;87.88;34.08;;;;;;;-146.25;100.00;52692.63;2080264;28;20233;-78
2023/12/13 03:08:21;;;;;;;87.05;35.08;;;;;;;-146.25;100.00;52714.94;2079428;28;35343;-78
2023/12/13 03:09:25;;;;;;;78.45;35.50;;;;;;;-146.25;100.00;52680.47;2079403;28;38127;-77
2023/12/13 03:10:27;;;;;;;84.80;35.90;;;;;;;-146.25;100.00;52672.34;2081140;28;20042;-77
2023/12/13 03:11:31;;;;;;;80.38;31.60;;;;;;;-146.25;100.00;52688.56;2079922;28;34624;-78
2023/12/13 03:12:33;;;;;;;81.68;34.10;;;;;;;-146.25;100.00;52718.97;2080151;28;40406;-78
2023/12/13 03:13:35;;;;;;;79.70;34.50;;;;;;;-146.25;100.00;52662.22;2080149;28;34593;-78
2023/12/13 03:14:37;;;;;;;88.07;34.15;;;;;;;-146.25;100.00;52664.22;2080555;28;38145;-78
2023/12/13 03:15:41;;;;;;;88.57;35.63;;;;;;;-146.25;100.00;52684.50;2080489;28;20883;-78
2023/12/13 03:16:42;;;;;;;85.78;34.67;;;;;;;-146.25;100.00;52668.28;2080715;28;33132;-78
2023/12/13 03:17:44;;;;;;;87.95;36.33;;;;;;;-146.25;100.00;52678.44;2079912;28;38285;-78
2023/12/13 03:18:46;;;;;;;86.72;36.75;;;;;;;-146.25;100.00;52686.53;2081117;28;20814;-79
2023/12/13 03:19:48;;;;;;;87.32;33.95;;;;;;;-146.25;100.00;52672.34;2080190;28;32936;-77
2023/12/13 03:20:50;;;;;;;82.82;35.40;;;;;;;-146.25;100.00;52696.69;2080459;28;21006;-78
2023/12/13 03:21:52;;;;;;;78.82;34.42;;;;;;;-146.25;100.00;52682.47;2080512;28;32862;-78
2023/12/13 03:22:54;;;;;;;80.53;35.45;;;;;;;-146.25;100.00;52674.38;2080364;28;35061;-78
2023/12/13 03:23:55;;;;;;;83.13;35.85;;;;;;;-146.25;100.00;52686.53;2079994;28;35547;-78
2023/12/13 03:25:00;;;;;;;85.75;36.80;;;;;;;-146.25;100.00;52696.69;2080521;28;20050;-79
2023/12/13 03:26:02;;;;;;;86.88;37.08;;;;;;;-146.25;100.00;52684.50;2080043;28;37691;-79
2023/12/13 03:27:04;;;;;;;83.82;35.88;;;;;;;-146.25;100.00;52682.47;2081202;28;20169;-78
2023/12/13 03:28:05;;;;;;;82.90;36.53;;;;;;;-146.25;100.00;52696.69;2080105;28;36782;-78
2023/12/13 03:29:09;;;;;;;88.50;35.47;;;;;;;-146.25;100.00;52672.34;2081018;28;20042;-79
2023/12/13 03:30:11;;;;;;;81.85;36.10;;;;;;;-146.25;100.00;52684.50;2080514;28;20030;-79
2023/12/13 03:31:16;;;;;;;89.07;36.38;;;;;;;-146.25;100.00;52678.44;2079942;28;38693;-78
2023/12/13 03:32:18;;;;;;;91.07;37.38;;;;;;;-146.25;100.00;52664.22;2079636;28;34014;-77
2023/12/13 03:33:19;;;;;;;89.13;37.42;;;;;;;-146.25;100.00;52656.13;2080133;28;20152;-77
2023/12/13 03:34:22;;;;;;;84.75;36.65;;;;;;;-146.25;100.00;52698.72;2079795;28;36073;-79
2023/12/13 03:35:23;;;;;;;83.03;34.53;;;;;;;-146.25;100.00;52670.31;2080672;28;34613;-79
2023/12/13 03:36:25;;;;;;;85.15;35.72;;;;;;;-146.25;100.00;52690.59;2080574;28;20157;-78
2023/12/13 03:37:31;;;;;;;86.22;36.40;;;;;;;-146.25;100.00;52656.13;2080956;28;31086;-78
2023/12/13 03:38:33;;;;;;;88.07;37.15;;;;;;;-146.25;100.00;52686.53;2079866;28;37176;-78
2023/12/13 03:39:35;;;;;;;89.60;36.75;;;;;;;-146.25;100.00;52656.13;2080276;28;20079;-79
2023/12/13 03:40:40;;;;;;;81.65;35.47;;;;;;;-146.25;100.00;52684.50;2080568;28;20132;-79
2023/12/13 03:41:42;;;;;;;89.43;36.88;;;;;;;-146.25;100.00;52690.59;2080072;28;37004;-78
2023/12/13 03:42:43;;;;;;;91.20;36.75;;;;;;;-146.25;100.00;52656.13;2080727;28;20056;-78
2023/12/13 03:43:47;;;;;;;92.45;36.72;;;;;;;-146.25;100.00;52682.47;2080418;28;35434;-78
2023/12/13 03:44:48;;;;;;;89.47;35.80;;;;;;;-146.25;100.00;52668.28;2080046;28;34072;-78
2023/12/13 03:45:50;;;;;;;91.45;37.60;;;;;;;-146.25;100.00;52676.41;2080224;28;33596;-79
2023/12/13 03:46:54;;;;;;;88.28;35.95;;;;;;;-146.25;100.00;52676.41;2080043;28;36832;-78
2023/12/13 03:47:56;;;;;;;85.63;35.63;;;;;;;-146.25;100.00;52660.19;2079879;28;35962;-78
2023/12/13 03:48:58;;;;;;;88.50;34.85;;;;;;;-146.25;100.00;52656.13;2080424;28;34263;-76
2023/12/13 03:49:59;;;;;;;96.82;37.17;;;;;;;-146.25;100.00;52676.41;2079565;28;39553;-78
2023/12/13 03:51:04;;;;;;;97.20;37.08;;;;;;;-146.25;100.00;52747.38;2080201;28;20038;-78
2023/12/13 03:52:07;;;;;;;92.55;36.40;;;;;;;-146.25;100.00;52680.47;2079914;28;35130;-79
2023/12/13 03:53:09;;;;;;;81.18;34.70;;;;;;;-146.25;100.00;52670.31;2079878;28;34942;-76
2023/12/13 03:54:11;;;;;;;89.35;35.22;;;;;;;-146.25;100.00;52698.72;2080299;28;31856;-78
2023/12/13 03:55:12;;;;;;;88.88;36.92;;;;;;;-146.25;100.00;52654.09;2079528;28;37472;-77
2023/12/13 03:56:17;;;;;;;86.30;35.10;;;;;;;-146.25;100.00;52676.41;2080915;28;20045;-75
2023/12/13 03:57:19;;;;;;;87.88;36.55;;;;;;;-146.25;100.00;52684.50;2079262;28;35032;-76
2023/12/13 03:58:21;;;;;;;95.30;37.67;;;;;;;-146.25;100.00;52660.19;2079405;28;34048;-77
2023/12/13 03:59:25;;;;;;;92.65;37.58;;;;;;;-146.25;100.00;52706.81;2080866;28;20147;-76
2023/12/13 04:00:28;;;;;;;97.22;36.80;;;;;;;-146.25;100.00;52672.34;2081138;28;20045;-75
2023/12/13 04:01:29;;;;;;;89.00;35.92;;;;;;;-146.25;100.00;52702.75;2079582;28;35385;-76
2023/12/13 04:02:31;;;;;;;87.57;36.75;;;;;;;-146.25;100.00;52712.91;2080375;28;20109;-76
2023/12/13 04:03:34;;;;;;;88.13;36.78;;;;;;;-146.25;100.00;52660.19;2079689;28;38754;-75
2023/12/13 04:04:38;;;;;;;94.78;36.50;;;;;;;-146.25;100.00;52674.38;2081029;28;20108;-77
2023/12/13 04:05:40;;;;;;;84.18;35.65;;;;;;;-146.25;100.00;52664.22;2080259;28;20046;-77
2023/12/13 04:06:42;;;;;;;92.60;36.95;;;;;;;-146.25;100.00;52710.88;2080052;28;37268;-76
2023/12/13 04:07:44;;;;;;;96.15;37.42;;;;;;;-146.25;100.00;52688.56;2079868;28;38415;-76
2023/12/13 04:08:45;;;;;;;85.38;35.17;;;;;;;-146.25;100.00;52692.63;2080170;28;36298;-77
2023/12/13 04:09:47;;;;;;;82.65;34.90;;;;;;;-146.25;100.00;52670.31;2079609;28;37124;-76
2023/12/13 04:10:49;;;;;;;82.57;35.58;;;;;;;-146.25;100.00;52668.28;2080054;28;32613;-77
2023/12/13 04:11:54;;;;;;;92.15;36.50;;;;;;;-146.25;100.00;52648.00;2079725;28;34461;-79
2023/12/13 04:12:55;;;;;;;87.90;35.08;;;;;;;-146.25;100.00;52704.78;2080142;28;35595;-76
2023/12/13 04:13:57;;;;;;;95.22;35.97;;;;;;;-146.25;100.00;52684.50;2079826;28;36500;-77
2023/12/13 04:14:59;;;;;;;85.97;35.30;;;;;;;-146.25;100.00;52700.72;2080065;28;30357;-77
2023/12/13 04:16:01;;;;;;;82.55;35.30;;;;;;;-146.25;100.00;52658.16;2079622;28;34215;-77
2023/12/13 04:17:03;;;;;;;96.13;37.42;;;;;;;-146.25;100.00;52666.25;2080330;28;31586;-77
2023/12/13 04:18:06;;;;;;;89.47;35.60;;;;;;;-146.25;100.00;52639.91;2079615;28;36313;-76
2023/12/13 04:19:08;;;;;;;81.18;33.90;;;;;;;-146.25;100.00;52648.00;2080568;28;20933;-76
2023/12/13 04:20:11;;;;;;;86.00;34.38;;;;;;;-146.25;100.00;52698.72;2079539;28;35534;-79
2023/12/13 04:21:12;;;;;;;96.30;36.95;;;;;;;-146.25;100.00;52700.72;2080550;28;32905;-77
2023/12/13 04:22:14;;;;;;;96.38;35.95;;;;;;;-146.25;100.00;52678.44;2079614;28;33812;-76
2023/12/13 04:23:18;;;;;;;81.25;35.58;;;;;;;-146.25;100.00;52658.16;2080053;28;36005;-77
2023/12/13 04:24:20;;;;;;;90.60;35.65;;;;;;;-146.25;100.00;52672.34;2079557;28;20112;-76
2023/12/13 04:25:22;;;;;;;89.68;35.67;;;;;;;-146.25;100.00;52684.50;2079319;28;29617;-77
2023/12/13 04:26:24;;;;;;;92.15;35.30;;;;;;;-146.25;100.00;52678.44;2079710;28;35617;-76
2023/12/13 04:27:26;;;;;;;89.22;36.75;;;;;;;-146.25;100.00;52674.38;2080590;28;20112;-77
2023/12/13 04:28:27;;;;;;;93.40;36.47;;;;;;;-146.25;100.00;52700.72;2079772;28;38093;-77
2023/12/13 04:29:29;;;;;;;97.07;36.17;;;;;;;-146.25;100.00;52696.69;2079253;28;34472;-76
2023/12/13 04:30:31;;;;;;;90.53;35.63;;;;;;;-146.25;100.00;52658.16;2079756;28;20073;-77
2023/12/13 04:31:33;;;;;;;97.88;37.40;;;;;;;-146.25;100.00;52706.81;2079641;28;33420;-77
2023/12/13 04:32:35;;;;;;;101.80;36.80;;;;;;;-146.25;100.00;52712.91;2079647;28;34807;-77
2023/12/13 04:33:39;;;;;;;95.60;36.97;;;;;;;-146.25;100.00;52692.63;2080530;28;20049;-77
2023/12/13 04:34:41;;;;;;;95.35;36.72;;;;;;;-146.25;100.00;52668.28;2079122;28;35382;-77
2023/12/13 04:35:42;;;;;;;98.53;37.78;;;;;;;-146.25;100.00;52690.59;2079901;28;35691;-77
2023/12/13 04:36:47;;;;;;;101.07;37.83;;;;;;;-146.25;100.00;52680.47;2079811;28;30147;-77
2023/12/13 04:37:49;;;;;;;88.35;37.22;;;;;;;-146.25;100.00;52652.06;2079715;28;37470;-77